sensor_id;sensor_type;location;lat;lon;timestamp;temperature;humidity
20315;DHT22;10315;50.958;13.080;2023-08-30T00:04:37;12.40;99.90
20315;DHT22;10315;50.958;13.080;2023-08-30T00:14:40;12.30;99.90
20315;DHT22;10315;50.958;13.080;2023-08-30T00:24:42;12.30;99.90
20315;DHT22;10315;50.958;13.080;2023-08-30T00:34:45;12.30;99.90
20315;DHT22;10315;50.958;13.080;2023-08-30T00:44:46;12.30;99.90
20315;DHT22;10315;50.958;13.080;2023-08-30T00:54:49;12.50;99.90
20315;DHT22;10315;50.958;13.080;2023-08-30T01:04:52;12.30;99.90
20315;DHT22;10315;50.958;13.080;2023-08-30T01:14:59;12.20;99.90
20315;DHT22;10315;50.958;13.080;2023-08-30T01:25:12;12.20;99.90
20315;DHT22;10315;50.958;13.080;2023-08-30T01:35:18;12.10;99.90
20315;DHT22;10315;50.958;13.080;2023-08-30T01:45:20;12.00;99.90
20315;DHT22;10315;50.958;13.080;2023-08-30T01:55:26;12.10;99.90
20315;DHT22;10315;50.958;13.080;2023-08-30T02:05:29;12.00;99.90
20315;DHT22;10315;50.958;13.080;2023-08-30T02:15:33;12.30;99.90
20315;DHT22;10315;50.958;13.080;2023-08-30T02:25:36;12.40;99.90
20315;DHT22;10315;50.958;13.080;2023-08-30T02:35:39;12.40;99.90
20315;DHT22;10315;50.958;13.080;2023-08-30T02:45:41;12.50;99.90
20315;DHT22;10315;50.958;13.080;2023-08-30T02:55:45;12.50;99.90
20315;DHT22;10315;50.958;13.080;2023-08-30T03:05:47;12.50;99.90
20315;DHT22;10315;50.958;13.080;2023-08-30T03:15:50;12.40;99.90
20315;DHT22;10315;50.958;13.080;2023-08-30T03:25:52;12.50;99.90
20315;DHT22;10315;50.958;13.080;2023-08-30T03:35:58;12.50;99.90
20315;DHT22;10315;50.958;13.080;2023-08-30T03:46:00;12.40;99.90
20315;DHT22;10315;50.958;13.080;2023-08-30T03:56:04;12.50;99.90
20315;DHT22;10315;50.958;13.080;2023-08-30T04:06:06;12.50;99.90
20315;DHT22;10315;50.958;13.080;2023-08-30T04:16:09;12.50;99.90
20315;DHT22;10315;50.958;13.080;2023-08-30T04:26:11;12.60;99.90
20315;DHT22;10315;50.958;13.080;2023-08-30T04:36:14;12.50;99.90
20315;DHT22;10315;50.958;13.080;2023-08-30T04:46:16;12.50;99.90
20315;DHT22;10315;50.958;13.080;2023-08-30T04:56:19;12.60;99.90
20315;DHT22;10315;50.958;13.080;2023-08-30T05:06:20;12.60;99.90
20315;DHT22;10315;50.958;13.080;2023-08-30T05:16:23;12.70;99.90
20315;DHT22;10315;50.958;13.080;2023-08-30T05:26:25;12.70;99.90
20315;DHT22;10315;50.958;13.080;2023-08-30T05:36:28;12.70;99.90
20315;DHT22;10315;50.958;13.080;2023-08-30T05:46:30;12.80;99.90
20315;DHT22;10315;50.958;13.080;2023-08-30T05:56:33;12.90;99.90
20315;DHT22;10315;50.958;13.080;2023-08-30T06:06:34;13.00;99.90
20315;DHT22;10315;50.958;13.080;2023-08-30T06:16:37;13.20;99.90
20315;DHT22;10315;50.958;13.080;2023-08-30T06:26:44;13.40;99.90
20315;DHT22;10315;50.958;13.080;2023-08-30T06:36:47;13.80;99.90
20315;DHT22;10315;50.958;13.080;2023-08-30T06:46:49;14.20;99.90
20315;DHT22;10315;50.958;13.080;2023-08-30T06:57:01;14.90;99.90
20315;DHT22;10315;50.958;13.080;2023-08-30T07:07:03;15.00;99.90
20315;DHT22;10315;50.958;13.080;2023-08-30T07:17:06;15.20;99.90
20315;DHT22;10315;50.958;13.080;2023-08-30T07:27:08;15.70;99.90
20315;DHT22;10315;50.958;13.080;2023-08-30T07:37:19;16.20;99.90
20315;DHT22;10315;50.958;13.080;2023-08-30T07:47:21;17.10;99.90
20315;DHT22;10315;50.958;13.080;2023-08-30T07:57:27;17.70;99.90
20315;DHT22;10315;50.958;13.080;2023-08-30T08:07:28;18.40;99.90
20315;DHT22;10315;50.958;13.080;2023-08-30T08:17:31;19.30;99.90
20315;DHT22;10315;50.958;13.080;2023-08-30T08:27:33;21.00;99.90
20315;DHT22;10315;50.958;13.080;2023-08-30T08:37:36;20.80;99.90
20315;DHT22;10315;50.958;13.080;2023-08-30T08:47:38;27.70;99.90
20315;DHT22;10315;50.958;13.080;2023-08-30T08:57:42;28.30;99.90
20315;DHT22;10315;50.958;13.080;2023-08-30T09:07:45;24.80;99.90
20315;DHT22;10315;50.958;13.080;2023-08-30T09:17:48;30.00;99.90
20315;DHT22;10315;50.958;13.080;2023-08-30T09:27:49;32.40;97.70
20315;DHT22;10315;50.958;13.080;2023-08-30T09:37:53;30.70;99.90
20315;DHT22;10315;50.958;13.080;2023-08-30T09:47:54;26.60;99.10
20315;DHT22;10315;50.958;13.080;2023-08-30T09:57:58;24.90;99.90
20315;DHT22;10315;50.958;13.080;2023-08-30T10:08:00;26.40;99.90
20315;DHT22;10315;50.958;13.080;2023-08-30T10:18:04;26.40;99.90
20315;DHT22;10315;50.958;13.080;2023-08-30T10:28:08;26.70;99.90
20315;DHT22;10315;50.958;13.080;2023-08-30T10:38:13;27.20;99.90
20315;DHT22;10315;50.958;13.080;2023-08-30T10:48:14;25.00;98.80
20315;DHT22;10315;50.958;13.080;2023-08-30T10:58:19;25.00;99.90
20315;DHT22;10315;50.958;13.080;2023-08-30T11:08:21;26.10;99.90
20315;DHT22;10315;50.958;13.080;2023-08-30T11:18:24;24.80;99.90
20315;DHT22;10315;50.958;13.080;2023-08-30T11:28:27;23.30;99.90
20315;DHT22;10315;50.958;13.080;2023-08-30T11:38:30;23.10;99.90
20315;DHT22;10315;50.958;13.080;2023-08-30T11:48:32;23.50;99.90
20315;DHT22;10315;50.958;13.080;2023-08-30T11:58:35;23.60;99.90
20315;DHT22;10315;50.958;13.080;2023-08-30T12:08:37;23.60;99.90
20315;DHT22;10315;50.958;13.080;2023-08-30T12:18:40;24.00;99.90
20315;DHT22;10315;50.958;13.080;2023-08-30T12:28:42;24.40;99.90
20315;DHT22;10315;50.958;13.080;2023-08-30T12:38:46;24.30;99.90
20315;DHT22;10315;50.958;13.080;2023-08-30T12:48:48;24.10;99.90
20315;DHT22;10315;50.958;13.080;2023-08-30T12:58:51;24.40;95.90
20315;DHT22;10315;50.958;13.080;2023-08-30T13:08:52;24.70;97.10
20315;DHT22;10315;50.958;13.080;2023-08-30T13:18:55;23.60;99.90
20315;DHT22;10315;50.958;13.080;2023-08-30T13:28:57;24.30;99.10
20315;DHT22;10315;50.958;13.080;2023-08-30T13:39:03;24.70;96.10
20315;DHT22;10315;50.958;13.080;2023-08-30T13:49:05;23.80;95.50
20315;DHT22;10315;50.958;13.080;2023-08-30T13:59:08;23.00;99.90
20315;DHT22;10315;50.958;13.080;2023-08-30T14:09:10;22.40;99.90
20315;DHT22;10315;50.958;13.080;2023-08-30T14:19:15;21.80;99.90
20315;DHT22;10315;50.958;13.080;2023-08-30T14:29:20;21.20;99.90
20315;DHT22;10315;50.958;13.080;2023-08-30T14:39:24;21.70;99.90
20315;DHT22;10315;50.958;13.080;2023-08-30T14:49:30;21.80;99.90
20315;DHT22;10315;50.958;13.080;2023-08-30T14:59:33;21.70;99.90
20315;DHT22;10315;50.958;13.080;2023-08-30T15:09:35;21.20;99.90
20315;DHT22;10315;50.958;13.080;2023-08-30T15:19:38;21.20;99.90
20315;DHT22;10315;50.958;13.080;2023-08-30T15:29:40;21.30;99.90
20315;DHT22;10315;50.958;13.080;2023-08-30T15:39:43;21.20;99.90
20315;DHT22;10315;50.958;13.080;2023-08-30T15:49:45;21.10;99.90
20315;DHT22;10315;50.958;13.080;2023-08-30T15:59:48;20.80;99.90
20315;DHT22;10315;50.958;13.080;2023-08-30T16:09:50;20.50;99.90
20315;DHT22;10315;50.958;13.080;2023-08-30T16:19:53;20.10;99.90
20315;DHT22;10315;50.958;13.080;2023-08-30T16:29:55;19.90;99.90
20315;DHT22;10315;50.958;13.080;2023-08-30T16:39:58;19.60;99.90
20315;DHT22;10315;50.958;13.080;2023-08-30T16:49:59;19.20;99.90
20315;DHT22;10315;50.958;13.080;2023-08-30T17:00:03;18.70;99.90
20315;DHT22;10315;50.958;13.080;2023-08-30T17:10:07;18.30;99.90
20315;DHT22;10315;50.958;13.080;2023-08-30T17:20:10;17.60;99.90
20315;DHT22;10315;50.958;13.080;2023-08-30T17:30:13;17.10;99.90
20315;DHT22;10315;50.958;13.080;2023-08-30T17:40:18;16.90;99.90
20315;DHT22;10315;50.958;13.080;2023-08-30T17:50:21;16.70;99.90
20315;DHT22;10315;50.958;13.080;2023-08-30T18:00:24;16.20;99.90
20315;DHT22;10315;50.958;13.080;2023-08-30T18:10:26;15.90;99.90
20315;DHT22;10315;50.958;13.080;2023-08-30T18:20:38;15.50;99.90
20315;DHT22;10315;50.958;13.080;2023-08-30T18:30:39;15.20;99.90
20315;DHT22;10315;50.958;13.080;2023-08-30T18:40:43;15.00;99.90
20315;DHT22;10315;50.958;13.080;2023-08-30T18:50:45;14.90;99.90
20315;DHT22;10315;50.958;13.080;2023-08-30T19:00:48;14.80;99.90
20315;DHT22;10315;50.958;13.080;2023-08-30T19:10:50;15.00;99.90
20315;DHT22;10315;50.958;13.080;2023-08-30T19:20:57;15.00;99.90
20315;DHT22;10315;50.958;13.080;2023-08-30T19:30:59;14.80;99.90
20315;DHT22;10315;50.958;13.080;2023-08-30T19:41:01;14.60;99.90
20315;DHT22;10315;50.958;13.080;2023-08-30T19:51:03;14.40;99.90
20315;DHT22;10315;50.958;13.080;2023-08-30T20:01:06;14.40;99.90
20315;DHT22;10315;50.958;13.080;2023-08-30T20:11:09;14.40;99.90
20315;DHT22;10315;50.958;13.080;2023-08-30T20:21:15;14.50;99.90
20315;DHT22;10315;50.958;13.080;2023-08-30T20:31:16;14.50;99.90
20315;DHT22;10315;50.958;13.080;2023-08-30T20:41:22;14.40;99.90
20315;DHT22;10315;50.958;13.080;2023-08-30T20:51:25;14.20;99.90
20315;DHT22;10315;50.958;13.080;2023-08-30T21:01:28;14.30;99.90
20315;DHT22;10315;50.958;13.080;2023-08-30T21:11:31;14.00;99.90
20315;DHT22;10315;50.958;13.080;2023-08-30T21:21:34;13.80;99.90
20315;DHT22;10315;50.958;13.080;2023-08-30T21:31:35;13.60;99.90
20315;DHT22;10315;50.958;13.080;2023-08-30T21:41:38;13.50;99.90
20315;DHT22;10315;50.958;13.080;2023-08-30T21:51:40;13.60;99.90
20315;DHT22;10315;50.958;13.080;2023-08-30T22:01:43;13.40;99.90
20315;DHT22;10315;50.958;13.080;2023-08-30T22:11:45;13.30;99.90
20315;DHT22;10315;50.958;13.080;2023-08-30T22:21:48;13.40;99.90
20315;DHT22;10315;50.958;13.080;2023-08-30T22:31:50;13.40;99.90
20315;DHT22;10315;50.958;13.080;2023-08-30T22:41:53;13.70;99.90
20315;DHT22;10315;50.958;13.080;2023-08-30T22:51:55;13.80;99.90
20315;DHT22;10315;50.958;13.080;2023-08-30T23:01:58;13.90;99.90
20315;DHT22;10315;50.958;13.080;2023-08-30T23:11:59;14.00;99.90
20315;DHT22;10315;50.958;13.080;2023-08-30T23:22:03;14.00;99.90
20315;DHT22;10315;50.958;13.080;2023-08-30T23:32:05;14.00;99.90
20315;DHT22;10315;50.958;13.080;2023-08-30T23:42:10;14.00;99.90
20315;DHT22;10315;50.958;13.080;2023-08-30T23:52:12;14.00;99.90
